Time;durP1;ratioP1;P1;durP2;ratioP2;P2;SDS_P1;SDS_P2;PMS_P1;PMS_P2;Temp;Humidity;BMP_temperature;BMP_pressure;BME280_temperature;BME280_humidity;BME280_pressure;Samples;Min_cycle;Max_cycle;Signal;HPM_P1;HPM_P2
2023/09/17 00:00:24;;;;;;;14.45;6.60;;;21.20;99.90;;;;;;5021888;28;20022;-71
2023/09/17 00:02:49;;;;;;;10.93;7.25;;;21.20;99.90;;;;;;5021632;28;20022;-71
2023/09/17 00:05:16;;;;;;;13.85;6.75;;;21.10;99.90;;;;;;5039204;28;20152;-71
2023/09/17 00:07:42;;;;;;;9.73;6.32;;;21.10;99.90;;;;;;5021417;28;20052;-71
2023/09/17 00:10:09;;;;;;;8.25;6.38;;;21.10;99.90;;;;;;5038977;28;20036;-72
2023/09/17 00:12:34;;;;;;;7.85;6.60;;;21.10;99.90;;;;;;5038715;28;20025;-71
2023/09/17 00:15:00;;;;;;;11.82;7.18;;;21.10;99.90;;;;;;5039230;28;20028;-71
2023/09/17 00:17:26;;;;;;;11.02;7.13;;;21.10;99.90;;;;;;5021677;28;20021;-71
2023/09/17 00:19:51;;;;;;;14.77;7.20;;;21.00;99.90;;;;;;5038712;28;20025;-71
2023/09/17 00:22:17;;;;;;;11.80;7.20;;;21.10;99.90;;;;;;5038668;28;20022;-71
2023/09/17 00:24:43;;;;;;;11.45;6.68;;;21.10;99.90;;;;;;5038509;28;20026;-71
2023/09/17 00:27:08;;;;;;;13.60;7.35;;;21.10;99.90;;;;;;5038862;28;20026;-72
2023/09/17 00:29:34;;;;;;;11.43;6.90;;;21.10;99.90;;;;;;5021099;28;20028;-71
2023/09/17 00:31:59;;;;;;;7.15;6.13;;;21.10;99.90;;;;;;5021945;28;20033;-71
2023/09/17 00:34:25;;;;;;;10.63;7.13;;;21.10;99.90;;;;;;5021264;28;20028;-71
2023/09/17 00:36:51;;;;;;;10.27;6.13;;;21.20;99.90;;;;;;5038267;28;20030;-71
2023/09/17 00:39:17;;;;;;;10.57;7.20;;;21.10;99.90;;;;;;5021149;28;20030;-71
2023/09/17 00:41:42;;;;;;;9.90;7.45;;;21.10;99.90;;;;;;5021337;28;20044;-71
2023/09/17 00:44:08;;;;;;;11.00;6.78;;;21.10;99.90;;;;;;5038214;28;20025;-71
2023/09/17 00:46:35;;;;;;;11.13;7.68;;;21.00;99.90;;;;;;5020745;28;20025;-71
2023/09/17 00:49:00;;;;;;;9.32;6.95;;;21.00;99.90;;;;;;5020668;28;20064;-71
2023/09/17 00:51:26;;;;;;;8.00;7.10;;;21.00;99.90;;;;;;5020804;28;20033;-71
2023/09/17 00:53:54;;;;;;;9.55;6.65;;;20.90;99.90;;;;;;5021150;28;20033;-71
2023/09/17 00:56:20;;;;;;;9.23;7.30;;;20.90;99.90;;;;;;5038369;28;20021;-72
2023/09/17 00:58:45;;;;;;;8.90;5.82;;;20.90;99.90;;;;;;5037089;28;20106;-71
2023/09/17 01:01:13;;;;;;;10.07;6.75;;;20.80;99.90;;;;;;5038228;28;20022;-71
2023/09/17 01:03:40;;;;;;;9.93;6.63;;;20.80;99.90;;;;;;5037916;28;20026;-71
2023/09/17 01:06:06;;;;;;;9.48;6.47;;;20.80;99.90;;;;;;5020980;28;20080;-71
2023/09/17 01:08:32;;;;;;;12.23;6.80;;;20.80;99.90;;;;;;5037817;28;20022;-71
2023/09/17 01:10:59;;;;;;;12.38;7.63;;;20.80;99.90;;;;;;5037706;28;20026;-71
2023/09/17 01:13:25;;;;;;;10.07;7.25;;;20.80;99.90;;;;;;5020329;28;20030;-71
2023/09/17 01:15:53;;;;;;;11.65;6.82;;;20.70;99.90;;;;;;5021197;28;20029;-71
2023/09/17 01:18:21;;;;;;;9.05;7.05;;;20.70;99.90;;;;;;5037512;28;20022;-71
2023/09/17 01:20:55;;;;;;;10.90;7.32;;;20.70;99.90;;;;;;5020570;28;20026;-71
2023/09/17 01:23:41;;;;;;;15.80;8.13;;;20.70;99.90;;;;;;5037598;28;20033;-72
2023/09/17 01:26:15;;;;;;;8.70;6.55;;;20.70;99.90;;;;;;5020168;28;20029;-71
2023/09/17 01:28:41;;;;;;;10.52;6.95;;;20.70;99.90;;;;;;5020756;28;20033;-71
2023/09/17 01:31:09;;;;;;;12.43;7.57;;;20.60;99.90;;;;;;5037339;28;20100;-71
2023/09/17 01:33:35;;;;;;;12.18;7.40;;;20.60;99.90;;;;;;5037878;28;20044;-71
2023/09/17 01:36:08;;;;;;;10.80;7.10;;;20.60;99.90;;;;;;5037857;28;20014;-71
2023/09/17 01:38:42;;;;;;;13.50;8.10;;;20.40;99.90;;;;;;5020704;28;20029;-71
2023/09/17 01:41:08;;;;;;;15.32;7.38;;;20.40;99.90;;;;;;5037180;28;20026;-71
2023/09/17 01:43:37;;;;;;;10.93;7.10;;;20.40;99.90;;;;;;5019844;28;20124;-71
2023/09/17 01:46:03;;;;;;;11.10;6.55;;;20.30;99.90;;;;;;5037117;28;20029;-71
2023/09/17 01:48:29;;;;;;;9.38;6.57;;;20.30;99.90;;;;;;5037393;28;20034;-71
2023/09/17 01:50:55;;;;;;;11.70;7.20;;;20.30;99.90;;;;;;5037306;28;20075;-71
2023/09/17 01:53:20;;;;;;;15.77;7.13;;;20.30;99.90;;;;;;5037222;28;20037;-71
2023/09/17 01:55:51;;;;;;;12.13;7.45;;;20.20;99.90;;;;;;5037087;28;20024;-71
2023/09/17 01:58:17;;;;;;;11.15;7.30;;;20.10;99.90;;;;;;5019579;28;20051;-71
2023/09/17 02:00:43;;;;;;;14.95;7.80;;;20.20;99.90;;;;;;5037337;28;20025;-72
2023/09/17 02:03:08;;;;;;;11.77;7.85;;;20.20;99.90;;;;;;5019861;28;20037;-71
2023/09/17 02:05:34;;;;;;;10.55;7.05;;;20.20;99.90;;;;;;5020175;28;20025;-71
2023/09/17 02:08:00;;;;;;;10.27;7.35;;;20.30;99.90;;;;;;5019808;28;20029;-71
2023/09/17 02:10:25;;;;;;;10.20;7.35;;;20.30;99.90;;;;;;5038629;28;20032;-71
2023/09/17 02:12:51;;;;;;;9.18;7.07;;;20.40;99.90;;;;;;5023975;28;20049;-71
2023/09/17 02:15:16;;;;;;;12.93;7.57;;;20.40;99.90;;;;;;5023878;28;20018;-71
2023/09/17 02:17:42;;;;;;;11.52;6.93;;;20.40;99.90;;;;;;5041066;28;20057;-71
2023/09/17 02:20:11;;;;;;;10.60;7.53;;;20.30;99.90;;;;;;5024326;28;20022;-71
2023/09/17 02:22:37;;;;;;;10.80;6.90;;;20.30;99.90;;;;;;5040757;28;20044;-71
2023/09/17 02:25:04;;;;;;;13.77;7.35;;;20.20;99.90;;;;;;5040923;28;20081;-71
2023/09/17 02:27:29;;;;;;;11.07;7.47;;;20.20;99.90;;;;;;5040789;28;20025;-72
2023/09/17 02:29:55;;;;;;;10.15;7.53;;;20.10;99.90;;;;;;5041262;28;20041;-71
2023/09/17 02:32:20;;;;;;;8.25;6.57;;;20.10;99.90;;;;;;5023628;28;20022;-71
2023/09/17 02:34:46;;;;;;;9.82;6.53;;;20.10;99.90;;;;;;5023711;28;20022;-71
2023/09/17 02:37:11;;;;;;;10.68;6.97;;;20.00;99.90;;;;;;5040644;28;20025;-71
2023/09/17 02:39:37;;;;;;;10.52;6.35;;;20.10;99.90;;;;;;5023106;28;20045;-71
2023/09/17 02:42:03;;;;;;;11.95;6.93;;;20.10;99.90;;;;;;5023211;28;20029;-71
2023/09/17 02:44:29;;;;;;;9.13;7.18;;;20.00;99.90;;;;;;5023565;28;20032;-71
2023/09/17 02:46:54;;;;;;;10.65;7.60;;;20.00;99.90;;;;;;5023308;28;20022;-71
2023/09/17 02:49:23;;;;;;;9.52;7.07;;;20.00;99.90;;;;;;5023265;28;20051;-71
2023/09/17 02:51:51;;;;;;;12.13;6.85;;;20.00;99.90;;;;;;5022923;28;20026;-71
2023/09/17 02:54:17;;;;;;;11.35;8.13;;;20.00;99.90;;;;;;5040235;28;20037;-71
2023/09/17 02:56:42;;;;;;;11.60;7.15;;;19.90;99.90;;;;;;5040205;28;20091;-71
2023/09/17 02:59:08;;;;;;;17.70;8.18;;;19.90;99.90;;;;;;5040340;28;20018;-71
2023/09/17 03:01:35;;;;;;;13.05;7.45;;;19.90;99.90;;;;;;5022997;28;20021;-71
2023/09/17 03:04:03;;;;;;;12.25;7.40;;;19.90;99.90;;;;;;5022752;28;20032;-72
2023/09/17 03:06:32;;;;;;;13.25;7.93;;;19.90;99.90;;;;;;5022714;28;20053;-71
2023/09/17 03:08:58;;;;;;;10.73;7.60;;;20.00;99.90;;;;;;5039965;28;20028;-71
2023/09/17 03:11:26;;;;;;;10.48;7.20;;;20.00;99.90;;;;;;5040528;28;20029;-72
2023/09/17 03:13:52;;;;;;;13.02;7.68;;;20.00;99.90;;;;;;5039848;28;20057;-71
2023/09/17 03:16:18;;;;;;;13.60;7.68;;;20.00;99.90;;;;;;5022514;28;20022;-71
2023/09/17 03:18:44;;;;;;;13.00;7.22;;;20.00;99.90;;;;;;5023061;28;20017;-71
2023/09/17 03:21:11;;;;;;;19.13;8.32;;;20.10;99.90;;;;;;5021460;28;20022;-71
2023/09/17 03:23:37;;;;;;;14.88;7.97;;;20.20;99.90;;;;;;5039520;28;20052;-71
2023/09/17 03:26:04;;;;;;;10.23;7.35;;;20.20;99.90;;;;;;5023557;28;20101;-71
2023/09/17 03:28:33;;;;;;;11.00;7.50;;;20.10;99.90;;;;;;5039645;28;20025;-71
2023/09/17 03:31:00;;;;;;;16.05;7.90;;;20.10;99.90;;;;;;5022152;28;20049;-71
2023/09/17 03:33:25;;;;;;;9.77;6.97;;;20.00;99.90;;;;;;5022267;28;20032;-71
2023/09/17 03:35:54;;;;;;;10.95;6.65;;;20.00;99.90;;;;;;5039636;28;20021;-71
2023/09/17 03:38:20;;;;;;;10.30;7.38;;;19.90;99.90;;;;;;5022843;28;20088;-71
2023/09/17 03:40:46;;;;;;;10.65;7.50;;;19.90;99.90;;;;;;5039576;28;20036;-71
2023/09/17 03:43:11;;;;;;;8.63;6.90;;;19.90;99.90;;;;;;5021878;28;20068;-71
2023/09/17 03:45:37;;;;;;;8.88;7.18;;;20.10;99.90;;;;;;5039412;28;20079;-71
2023/09/17 03:48:04;;;;;;;9.75;6.78;;;20.20;99.90;;;;;;5022120;28;20022;-71
2023/09/17 03:50:30;;;;;;;11.32;6.75;;;20.20;99.90;;;;;;5039319;28;20018;-71
2023/09/17 03:53:01;;;;;;;14.27;7.47;;;20.20;99.90;;;;;;5039275;28;20026;-71
2023/09/17 03:55:27;;;;;;;8.93;6.93;;;20.20;99.90;;;;;;5039497;28;20018;-71
2023/09/17 03:57:55;;;;;;;13.00;6.68;;;20.20;99.90;;;;;;5039166;28;20124;-71
2023/09/17 04:00:21;;;;;;;12.82;7.00;;;19.90;99.90;;;;;;5039219;28;20025;-72
2023/09/17 04:02:49;;;;;;;9.77;6.70;;;19.90;99.90;;;;;;5039071;28;20022;-71
2023/09/17 04:05:15;;;;;;;11.82;7.97;;;20.00;99.90;;;;;;5038952;28;20033;-71
2023/09/17 04:07:42;;;;;;;12.98;7.32;;;20.00;99.90;;;;;;5038947;28;20065;-71
2023/09/17 04:10:08;;;;;;;15.45;7.32;;;20.00;99.90;;;;;;5021330;28;20079;-72
2023/09/17 04:12:35;;;;;;;13.50;7.47;;;20.00;99.90;;;;;;5038687;28;20025;-71
2023/09/17 04:15:13;;;;;;;10.68;7.10;;;20.00;99.90;;;;;;5039179;28;20045;-71
2023/09/17 04:17:39;;;;;;;13.30;7.60;;;19.90;99.90;;;;;;5039096;28;20022;-71
2023/09/17 04:20:10;;;;;;;10.85;7.07;;;19.90;99.90;;;;;;5021288;28;20116;-71
2023/09/17 04:22:36;;;;;;;;;;;19.90;99.90;;;;;;5039413;28;20029;-71
2023/09/17 04:25:04;;;;;;;9.48;6.60;;;19.90;99.90;;;;;;5038573;28;19905;-71
2023/09/17 04:27:30;;;;;;;9.45;6.70;;;19.90;99.90;;;;;;5038644;28;20022;-71
2023/09/17 04:29:56;;;;;;;10.95;7.28;;;19.90;99.90;;;;;;5021114;28;20032;-71
2023/09/17 04:32:21;;;;;;;10.82;6.78;;;19.90;99.90;;;;;;5039364;28;20036;-71
2023/09/17 04:34:47;;;;;;;10.02;6.80;;;19.90;99.90;;;;;;5021000;28;20121;-71
2023/09/17 04:37:12;;;;;;;10.43;6.57;;;19.80;99.90;;;;;;5020917;28;20116;-71
2023/09/17 04:39:38;;;;;;;9.32;6.05;;;19.80;99.90;;;;;;5020857;28;20112;-71
2023/09/17 04:42:05;;;;;;;10.40;7.00;;;19.70;99.90;;;;;;5038513;28;20056;-71
2023/09/17 04:44:31;;;;;;;11.93;6.85;;;19.70;99.90;;;;;;5021469;28;20083;-71
2023/09/17 04:46:56;;;;;;;11.75;7.07;;;19.70;99.90;;;;;;5020808;28;20029;-71
2023/09/17 04:49:22;;;;;;;9.77;6.72;;;19.60;99.90;;;;;;5020744;28;20040;-71
2023/09/17 04:51:47;;;;;;;9.57;6.65;;;19.50;99.90;;;;;;5020731;28;20032;-71
2023/09/17 04:54:13;;;;;;;13.68;7.10;;;19.50;99.90;;;;;;5037969;28;20025;-71
2023/09/17 04:56:38;;;;;;;8.35;6.40;;;19.50;99.90;;;;;;5021788;28;20029;-71
2023/09/17 04:59:04;;;;;;;11.65;6.93;;;19.50;99.90;;;;;;5020583;28;20028;-71
2023/09/17 05:01:29;;;;;;;9.35;6.25;;;19.60;99.90;;;;;;5020611;28;20029;-71
2023/09/17 05:03:55;;;;;;;10.57;6.50;;;19.60;99.90;;;;;;5037881;28;20041;-71
2023/09/17 05:06:21;;;;;;;13.57;6.85;;;19.60;99.90;;;;;;5020389;28;20147;-71
2023/09/17 05:08:46;;;;;;;10.07;6.65;;;19.60;99.90;;;;;;5037896;28;20033;-71
2023/09/17 05:11:12;;;;;;;8.85;6.53;;;19.70;99.90;;;;;;5037793;28;20029;-71
2023/09/17 05:13:37;;;;;;;11.80;6.55;;;19.80;99.90;;;;;;5020280;28;20052;-71
2023/09/17 05:16:04;;;;;;;8.60;5.80;;;19.80;99.90;;;;;;5021056;28;20093;-71
2023/09/17 05:18:30;;;;;;;10.13;6.20;;;19.80;99.90;;;;;;5037858;28;20013;-71
2023/09/17 05:20:56;;;;;;;8.32;5.80;;;19.80;99.90;;;;;;5021263;28;20036;-71
2023/09/17 05:23:22;;;;;;;10.27;5.88;;;19.80;99.90;;;;;;5037514;28;20029;-71
2023/09/17 05:25:48;;;;;;;10.65;5.80;;;19.80;99.90;;;;;;5037457;28;20028;-71
2023/09/17 05:28:14;;;;;;;11.02;6.60;;;19.80;99.90;;;;;;5037458;28;20051;-72
2023/09/17 05:30:41;;;;;;;12.25;5.80;;;19.70;99.90;;;;;;5037528;28;20057;-72
2023/09/17 05:33:06;;;;;;;9.35;5.68;;;19.60;99.90;;;;;;5038151;28;20018;-71
2023/09/17 05:35:34;;;;;;;7.60;5.60;;;19.50;99.90;;;;;;5020017;28;20143;-71
2023/09/17 05:38:00;;;;;;;7.60;5.82;;;19.60;99.90;;;;;;5037994;28;20082;-71
2023/09/17 05:40:25;;;;;;;7.78;6.00;;;19.60;99.90;;;;;;5060636;22;20128;-66
2023/09/17 05:42:51;;;;;;;11.27;6.53;;;19.60;99.90;;;;;;5037315;28;20025;-66
2023/09/17 05:45:17;;;;;;;9.73;6.05;;;19.70;99.90;;;;;;5019953;28;20029;-66
2023/09/17 05:47:43;;;;;;;8.60;6.10;;;19.60;99.90;;;;;;5019955;28;20026;-66
2023/09/17 05:50:12;;;;;;;7.35;5.50;;;19.70;99.90;;;;;;5037418;28;20033;-66
2023/09/17 05:52:38;;;;;;;10.90;5.90;;;19.70;99.90;;;;;;5019656;28;20108;-66
2023/09/17 05:55:04;;;;;;;8.18;6.50;;;19.60;99.90;;;;;;5020090;28;20113;-66
2023/09/17 05:57:30;;;;;;;8.63;6.05;;;19.70;99.90;;;;;;5020484;28;20079;-66
2023/09/17 05:59:56;;;;;;;8.48;6.65;;;19.70;99.90;;;;;;5020013;28;20071;-67
2023/09/17 06:02:21;;;;;;;9.90;5.90;;;19.60;99.90;;;;;;5037177;28;20025;-66
2023/09/17 06:04:51;;;;;;;10.90;6.45;;;19.60;99.90;;;;;;5037108;28;20017;-66
2023/09/17 06:07:16;;;;;;;10.23;5.72;;;19.60;99.90;;;;;;5019647;28;20029;-66
2023/09/17 06:09:42;;;;;;;8.60;5.38;;;19.50;99.90;;;;;;5019833;28;20025;-66
2023/09/17 06:12:07;;;;;;;8.40;6.07;;;19.60;99.90;;;;;;5019623;28;20053;-66
2023/09/17 06:14:33;;;;;;;7.47;5.75;;;19.60;99.90;;;;;;5019513;28;20033;-66
2023/09/17 06:16:59;;;;;;;7.68;5.60;;;19.70;99.90;;;;;;5019523;28;20095;-66
2023/09/17 06:19:25;;;;;;;9.63;5.18;;;19.70;99.90;;;;;;5020071;28;20022;-66
2023/09/17 06:21:52;;;;;;;7.35;5.20;;;19.80;99.90;;;;;;5036865;28;20018;-66
2023/09/17 06:24:17;;;;;;;10.05;5.35;;;19.70;99.90;;;;;;5019511;28;20048;-66
2023/09/17 06:26:43;;;;;;;9.63;5.57;;;19.70;99.90;;;;;;5019462;28;20026;-66
2023/09/17 06:29:08;;;;;;;7.35;5.03;;;19.60;99.90;;;;;;5019800;28;20026;-66
2023/09/17 06:31:34;;;;;;;11.90;5.82;;;19.60;99.90;;;;;;5019666;28;20070;-66
2023/09/17 06:33:59;;;;;;;10.07;4.93;;;19.60;99.90;;;;;;5019826;28;20098;-66
2023/09/17 06:36:25;;;;;;;11.77;5.10;;;19.70;99.90;;;;;;5019756;28;20030;-66
2023/09/17 06:38:50;;;;;;;8.82;5.47;;;19.70;99.90;;;;;;5036465;28;20029;-66
2023/09/17 06:41:16;;;;;;;10.98;5.32;;;19.70;99.90;;;;;;5020463;28;20037;-66
2023/09/17 06:43:41;;;;;;;7.10;5.25;;;19.70;99.90;;;;;;5019636;28;20034;-66
2023/09/17 06:46:07;;;;;;;9.82;5.40;;;19.80;99.90;;;;;;5019440;28;20116;-66
2023/09/17 06:48:33;;;;;;;12.13;5.57;;;19.90;99.90;;;;;;5019637;28;20049;-66
2023/09/17 06:50:59;;;;;;;11.23;5.35;;;19.90;99.90;;;;;;5019290;28;20023;-66
2023/09/17 06:53:24;;;;;;;12.07;5.15;;;19.90;99.90;;;;;;5019506;28;20033;-66
2023/09/17 06:55:50;;;;;;;11.00;5.28;;;19.90;99.90;;;;;;5020994;28;20026;-66
2023/09/17 06:58:18;;;;;;;5.60;4.40;;;20.00;99.90;;;;;;5040359;28;20100;-66
2023/09/17 07:00:45;;;;;;;7.10;4.70;;;20.10;99.90;;;;;;5023011;28;20025;-66
2023/09/17 07:03:11;;;;;;;6.22;4.90;;;20.20;99.90;;;;;;5023552;28;20041;-66
2023/09/17 07:05:37;;;;;;;7.65;4.60;;;20.20;99.90;;;;;;5022809;28;20033;-66
2023/09/17 07:08:03;;;;;;;6.53;4.50;;;20.20;99.90;;;;;;5040072;28;20030;-66
2023/09/17 07:10:29;;;;;;;6.78;4.30;;;20.20;99.90;;;;;;5040325;28;20022;-66
2023/09/17 07:12:54;;;;;;;7.93;4.82;;;20.20;99.90;;;;;;5022544;28;20049;-66
2023/09/17 07:15:21;;;;;;;8.57;5.22;;;20.30;99.90;;;;;;5022867;28;20030;-66
2023/09/17 07:17:47;;;;;;;11.13;5.18;;;20.20;99.90;;;;;;5022665;28;20035;-66
2023/09/17 07:20:13;;;;;;;7.88;5.20;;;20.20;99.90;;;;;;5022414;28;20022;-66
2023/09/17 07:22:39;;;;;;;10.55;6.00;;;20.20;99.90;;;;;;5040199;28;20021;-66
2023/09/17 07:25:05;;;;;;;9.35;6.50;;;20.10;99.90;;;;;;5023236;28;20135;-66
2023/09/17 07:27:32;;;;;;;12.02;6.22;;;20.20;99.90;;;;;;5022286;28;20045;-66
2023/09/17 07:29:58;;;;;;;11.05;7.47;;;20.30;99.90;;;;;;5022153;28;20025;-66
2023/09/17 07:32:27;;;;;;;14.50;9.07;;;20.30;99.90;;;;;;5039869;28;20025;-66
2023/09/17 07:34:53;;;;;;;13.55;8.40;;;20.30;99.90;;;;;;5039773;28;20095;-66
2023/09/17 07:37:20;;;;;;;14.70;9.73;;;20.50;99.90;;;;;;5022458;28;20025;-67
2023/09/17 07:39:47;;;;;;;13.75;9.60;;;20.70;99.90;;;;;;5022183;28;20056;-66
2023/09/17 07:42:13;;;;;;;18.10;9.55;;;21.00;99.90;;;;;;5022905;28;20029;-66
2023/09/17 07:44:40;;;;;;;15.70;9.60;;;21.20;99.90;;;;;;5022156;28;20026;-66
2023/09/17 07:47:06;;;;;;;16.70;8.90;;;21.20;99.90;;;;;;5022450;28;20021;-66
2023/09/17 07:49:32;;;;;;;14.73;8.98;;;21.10;99.90;;;;;;5022493;28;20051;-65
2023/09/17 07:51:57;;;;;;;18.02;10.65;;;21.20;99.90;;;;;;5022685;28;20124;-64
2023/09/17 07:54:23;;;;;;;22.02;10.55;;;21.20;99.90;;;;;;5021773;28;20028;-65
2023/09/17 07:56:49;;;;;;;17.83;11.63;;;21.20;99.90;;;;;;5022319;28;20030;-65
2023/09/17 07:59:14;;;;;;;15.98;10.80;;;21.40;99.90;;;;;;5021685;28;20017;-65
2023/09/17 08:01:40;;;;;;;16.27;10.98;;;21.50;99.90;;;;;;5021823;28;20068;-65
2023/09/17 08:04:05;;;;;;;17.92;10.65;;;21.70;99.90;;;;;;5022025;28;20043;-64
2023/09/17 08:06:34;;;;;;;18.08;11.05;;;21.80;99.90;;;;;;5021721;28;20025;-65
2023/09/17 08:09:00;;;;;;;17.33;11.05;;;21.90;99.90;;;;;;5021001;28;20108;-65
2023/09/17 08:11:32;;;;;;;22.33;11.95;;;21.90;99.90;;;;;;5022375;28;20025;-65
2023/09/17 08:13:57;;;;;;;;;;;22.00;99.90;;;;;;5021792;28;20026;-65
2023/09/17 08:16:24;;;;;;;17.35;10.60;;;22.00;99.90;;;;;;5021653;28;19912;-66
2023/09/17 08:18:50;;;;;;;21.25;12.32;;;22.20;99.90;;;;;;5021696;28;20021;-66
2023/09/17 08:21:15;;;;;;;17.52;11.32;;;22.10;99.90;;;;;;5021395;28;20052;-66
2023/09/17 08:23:41;;;;;;;19.52;10.23;;;22.20;99.90;;;;;;5021598;28;20032;-66
2023/09/17 08:26:08;;;;;;;18.27;10.23;;;22.30;99.90;;;;;;5022059;28;20056;-65
2023/09/17 08:28:34;;;;;;;18.10;10.77;;;22.40;99.90;;;;;;5022297;28;20104;-66
2023/09/17 08:31:00;;;;;;;17.20;10.43;;;22.40;99.90;;;;;;5022345;28;20025;-66
2023/09/17 08:33:26;;;;;;;22.75;11.40;;;22.60;99.90;;;;;;5021669;28;20021;-64
2023/09/17 08:35:51;;;;;;;14.27;9.45;;;22.80;99.90;;;;;;5021954;28;20021;-65
2023/09/17 08:38:18;;;;;;;15.57;8.98;;;22.90;99.90;;;;;;5021453;28;20104;-65
2023/09/17 08:40:44;;;;;;;14.43;10.18;;;22.90;99.90;;;;;;5021356;28;20030;-70
2023/09/17 08:43:11;;;;;;;16.80;9.80;;;22.80;99.90;;;;;;5020892;28;20028;-71
2023/09/17 08:45:36;;;;;;;16.13;9.70;;;22.80;99.90;;;;;;5020920;28;20030;-70
2023/09/17 08:48:02;;;;;;;10.85;8.30;;;22.80;99.90;;;;;;5021846;28;20033;-70
2023/09/17 08:50:33;;;;;;;15.30;8.07;;;22.80;99.90;;;;;;5021454;28;20025;-70
2023/09/17 08:53:02;;;;;;;12.68;7.50;;;22.90;99.90;;;;;;5021031;28;20022;-70
2023/09/17 08:55:28;;;;;;;9.60;6.70;;;22.90;99.90;;;;;;5020726;28;20021;-71
2023/09/17 08:58:11;;;;;;;11.82;7.95;;;23.00;99.90;;;;;;5020918;28;20026;-71
2023/09/17 09:00:39;;;;;;;10.27;6.95;;;23.20;99.90;;;;;;5020696;28;20050;-71
2023/09/17 09:03:07;;;;;;;8.65;6.13;;;23.30;99.90;;;;;;5021225;28;20025;-71
2023/09/17 09:05:35;;;;;;;10.10;5.85;;;23.50;99.90;;;;;;5020900;28;20026;-72
2023/09/17 09:08:01;;;;;;;6.95;5.68;;;23.60;99.90;;;;;;5020681;28;20033;-71
2023/09/17 09:10:27;;;;;;;11.02;6.13;;;23.60;99.90;;;;;;5020622;28;20031;-72
2023/09/17 09:12:52;;;;;;;8.30;5.65;;;23.70;99.90;;;;;;5020582;28;20088;-71
2023/09/17 09:15:18;;;;;;;8.48;5.68;;;23.90;99.90;;;;;;5020631;28;20026;-71
2023/09/17 09:17:44;;;;;;;7.53;5.60;;;24.00;99.90;;;;;;5020739;28;20021;-71
2023/09/17 09:20:16;;;;;;;6.40;4.43;;;24.00;99.90;;;;;;5019549;28;20075;-71
2023/09/17 09:22:43;;;;;;;7.07;5.25;;;24.00;99.90;;;;;;5020418;28;20113;-71
2023/09/17 09:25:12;;;;;;;7.68;5.15;;;24.20;99.90;;;;;;5020357;28;20018;-71
2023/09/17 09:27:37;;;;;;;6.45;5.15;;;24.20;99.90;;;;;;5021009;28;20053;-71
2023/09/17 09:30:11;;;;;;;7.47;5.53;;;24.30;99.90;;;;;;5021076;28;20029;-71
2023/09/17 09:32:37;;;;;;;9.43;5.15;;;24.30;99.90;;;;;;5020409;28;20026;-71
2023/09/17 09:35:03;;;;;;;7.47;5.13;;;24.50;99.90;;;;;;5020457;28;20072;-71
2023/09/17 09:37:29;;;;;;;11.07;5.38;;;24.60;99.90;;;;;;5020362;28;20017;-71
2023/09/17 09:39:56;;;;;;;9.43;5.03;;;24.70;99.90;;;;;;5019885;28;20079;-71
2023/09/17 09:42:22;;;;;;;8.68;4.90;;;24.80;99.90;;;;;;5019988;28;20108;-71
2023/09/17 09:44:51;;;;;;;8.20;4.78;;;24.80;99.90;;;;;;5020013;28;20121;-71
2023/09/17 09:47:20;;;;;;;8.10;5.25;;;24.70;99.90;;;;;;5020356;28;20036;-70
2023/09/17 09:49:46;;;;;;;8.45;4.80;;;24.80;99.90;;;;;;5019685;28;20049;-71
2023/09/17 09:52:13;;;;;;;6.80;4.93;;;25.00;99.90;;;;;;5019860;28;20028;-71
2023/09/17 09:54:44;;;;;;;8.73;4.60;;;25.00;99.90;;;;;;5020604;28;20025;-71
2023/09/17 09:57:18;;;;;;;10.20;4.67;;;25.10;99.90;;;;;;5019992;28;20028;-71
2023/09/17 09:59:46;;;;;;;5.05;4.13;;;25.20;99.90;;;;;;5020460;28;20274;-72
2023/09/17 10:02:13;;;;;;;7.47;4.32;;;25.10;99.90;;;;;;5019606;28;20115;-72
2023/09/17 10:04:39;;;;;;;5.25;4.22;;;25.30;99.90;;;;;;5037027;28;20025;-72
2023/09/17 10:07:07;;;;;;;7.20;4.97;;;25.50;99.90;;;;;;5019659;28;20026;-72
2023/09/17 10:09:33;;;;;;;5.35;4.28;;;25.60;99.90;;;;;;5019748;28;20037;-71
2023/09/17 10:11:59;;;;;;;6.20;4.55;;;25.60;99.90;;;;;;5020019;28;20025;-71
2023/09/17 10:14:26;;;;;;;6.22;4.32;;;25.50;99.90;;;;;;5019452;28;20033;-72
2023/09/17 10:16:54;;;;;;;7.57;4.57;;;25.60;99.90;;;;;;5019609;28;20029;-72
2023/09/17 10:19:21;;;;;;;11.23;5.32;;;25.70;99.90;;;;;;5019340;28;20029;-72
2023/09/17 10:21:48;;;;;;;4.90;4.35;;;25.80;99.90;;;;;;5020421;28;20052;-72
2023/09/17 10:24:17;;;;;;;8.60;4.80;;;25.90;99.90;;;;;;5020264;28;20033;-72
2023/09/17 10:26:44;;;;;;;10.05;5.18;;;26.00;99.90;;;;;;5019719;28;20029;-71
2023/09/17 10:29:12;;;;;;;7.70;4.32;;;26.20;99.90;;;;;;5019740;28;20026;-71
2023/09/17 10:31:39;;;;;;;5.95;4.10;;;26.90;99.90;;;;;;5021512;28;20033;-72
2023/09/17 10:34:05;;;;;;;9.43;4.90;;;27.00;99.90;;;;;;5023230;28;20021;-71
2023/09/17 10:36:33;;;;;;;7.82;4.50;;;27.10;99.90;;;;;;5023784;28;20033;-72
2023/09/17 10:38:59;;;;;;;8.10;4.85;;;27.30;99.90;;;;;;5023316;28;20030;-72
2023/09/17 10:41:29;;;;;;;7.75;4.47;;;27.40;99.90;;;;;;5007499;28;20164;-71
2023/09/17 10:43:57;;;;;;;6.35;4.03;;;27.30;99.90;;;;;;5023691;28;20108;-72
2023/09/17 10:46:23;;;;;;;5.25;4.70;;;27.10;99.90;;;;;;5023661;28;20099;-72
2023/09/17 10:48:50;;;;;;;7.40;4.75;;;26.90;99.90;;;;;;5023349;28;20025;-72
2023/09/17 10:51:18;;;;;;;7.00;4.32;;;27.30;99.90;;;;;;5023368;28;20024;-72
2023/09/17 10:53:44;;;;;;;9.27;4.60;;;27.50;99.90;;;;;;5023740;28;20022;-72
2023/09/17 10:56:11;;;;;;;7.85;3.95;;;28.30;99.90;;;;;;5022957;28;20024;-72
2023/09/17 10:58:39;;;;;;;4.90;4.05;;;29.00;99.90;;;;;;5023059;28;20116;-72
2023/09/17 11:01:08;;;;;;;4.85;4.15;;;29.20;99.90;;;;;;5023688;28;20022;-72
2023/09/17 11:03:37;;;;;;;8.30;4.47;;;29.70;99.90;;;;;;5022719;28;20033;-72
2023/09/17 11:06:13;;;;;;;7.28;4.47;;;29.20;99.90;;;;;;5040200;28;20052;-72
2023/09/17 11:08:41;;;;;;;6.25;4.25;;;28.70;99.90;;;;;;5039975;28;20104;-72
2023/09/17 11:11:06;;;;;;;6.50;3.97;;;28.60;99.90;;;;;;5022860;28;20168;-72
2023/09/17 11:13:33;;;;;;;6.72;3.92;;;28.40;99.90;;;;;;5023230;28;20021;-72
2023/09/17 11:16:00;;;;;;;10.43;4.18;;;28.90;99.90;;;;;;5023179;28;20018;-73
2023/09/17 11:18:26;;;;;;;7.90;4.45;;;29.80;99.90;;;;;;5022502;28;20049;-72
2023/09/17 11:21:06;;;;;;;7.90;4.35;;;28.80;99.90;;;;;;5022392;28;20057;-72
2023/09/17 11:23:46;;;;;;;8.80;4.03;;;29.10;99.90;;;;;;5022804;28;20036;-72
2023/09/17 11:26:14;;;;;;;8.87;3.73;;;29.70;99.90;;;;;;5039779;28;20033;-72
2023/09/17 11:28:40;;;;;;;6.88;3.88;;;30.00;99.90;;;;;;5022554;28;20037;-72
2023/09/17 11:31:14;;;;;;;7.38;3.40;;;30.00;99.90;;;;;;5022328;28;20030;-71
2023/09/17 11:33:42;;;;;;;5.47;3.83;;;29.90;99.90;;;;;;5039636;28;20104;-72
2023/09/17 11:36:08;;;;;;;7.32;3.50;;;29.70;99.90;;;;;;5039613;28;20029;-73
2023/09/17 11:38:33;;;;;;;6.85;3.45;;;29.50;99.90;;;;;;5022048;28;20018;-72
2023/09/17 11:41:06;;;;;;;10.77;3.47;;;29.50;99.90;;;;;;5063219;22;20037;-68
2023/09/17 11:43:37;;;;;;;6.68;4.00;;;29.20;99.90;;;;;;5021158;28;20025;-69
2023/09/17 11:46:05;;;;;;;9.05;3.83;;;28.90;99.90;;;;;;5039683;28;20030;-69
2023/09/17 11:48:37;;;;;;;7.22;4.20;;;29.20;99.90;;;;;;5022319;28;20034;-70
2023/09/17 11:51:25;;;;;;;8.25;3.60;;;29.50;99.90;;;;;;5021791;28;20022;-70
2023/09/17 11:54:00;;;;;;;8.57;3.30;;;29.50;99.90;;;;;;5039731;28;20022;-70
2023/09/17 11:56:28;;;;;;;6.00;3.40;;;30.10;99.90;;;;;;5039251;28;20014;-70
2023/09/17 11:59:15;;;;;;;4.57;3.72;;;30.30;99.90;;;;;;5039116;28;20079;-71
2023/09/17 12:01:46;;;;;;;4.10;3.42;;;31.60;99.90;;;;;;5039149;28;20017;-70
2023/09/17 12:04:12;;;;;;;5.38;3.28;;;32.30;99.90;;;;;;5021771;28;20030;-70
2023/09/17 12:06:43;;;;;;;7.03;3.33;;;32.00;99.90;;;;;;5039016;28;20040;-70
2023/09/17 12:10:00;;;;;;;7.13;3.60;;;31.00;99.90;;;;;;5039161;28;20082;-70
2023/09/17 12:11:56;;;;;;;3.40;2.75;;;30.20;99.90;;;;;;5031545;28;20052;-70
2023/09/17 12:14:22;;;;;;;6.57;3.40;;;30.90;99.90;;;;;;5039023;28;20026;-70
2023/09/17 12:16:49;;;;;;;5.03;3.08;;;32.20;99.90;;;;;;5039220;28;20013;-70
2023/09/17 12:19:15;;;;;;;4.82;2.40;;;33.30;99.90;;;;;;5038597;28;20018;-70
2023/09/17 12:21:41;;;;;;;6.80;3.00;;;33.90;99.90;;;;;;5021382;28;20026;-69
2023/09/17 12:24:17;;;;;;;3.90;2.72;;;33.20;99.90;;;;;;5038577;28;20030;-70
2023/09/17 12:29:33;;;;;;;4.63;3.03;;;31.10;99.90;;;;;;5038753;28;20113;-70
2023/09/17 12:31:58;;;;;;;4.47;3.10;;;30.90;99.90;;;;;;5038594;28;20155;-70
2023/09/17 12:34:25;;;;;;;6.40;3.10;;;30.60;99.90;;;;;;5020984;28;20049;-70
2023/09/17 12:36:50;;;;;;;5.40;3.40;;;30.80;99.90;;;;;;5038454;28;20017;-70
2023/09/17 12:39:16;;;;;;;6.50;3.15;;;30.80;99.90;;;;;;5038264;28;20033;-70
2023/09/17 12:41:45;;;;;;;6.15;2.90;;;32.20;99.90;;;;;;5038241;28;20022;-70